Time;durP1;ratioP1;P1;durP2;ratioP2;P2;SDS_P1;SDS_P2;PMS_P1;PMS_P2;Temp;Humidity;BMP_temperature;BMP_pressure;BME280_temperature;BME280_humidity;BME280_pressure;Samples;Min_cycle;Max_cycle;Signal;HPM_P1;HPM_P2
2021/10/26 00:00:08;;;;;;;21.95;13.93;;;;;;;3.09;79.97;99778.00;1756121;80;21151;-72
2021/10/26 00:02:40;;;;;;;21.77;14.28;;;;;;;3.09;80.05;99773.69;1786199;80;21025;-73
2021/10/26 00:05:09;;;;;;;21.40;13.10;;;;;;;3.07;80.12;99773.30;1779479;79;21064;-73
2021/10/26 00:07:36;;;;;;;21.80;13.58;;;;;;;3.05;80.09;99777.63;1775732;80;20974;-73
2021/10/26 00:11:33;;;;;;;20.23;13.80;;;;;;;3.05;80.16;99769.88;1843342;75;22787;-72
2021/10/26 00:14:01;;;;;;;24.12;14.98;;;;;;;2.98;80.12;99778.61;1790333;79;21924;-72
2021/10/26 00:16:28;;;;;;;;;;;;;;;2.93;80.12;99770.09;1786503;78;21118;-72
2021/10/26 00:18:56;;;;;;;22.50;14.30;;;;;;;2.90;80.25;99769.25;1786806;79;28997;-72
2021/10/26 00:21:23;;;;;;;24.98;14.28;;;;;;;2.86;80.28;99777.92;1790940;79;21569;-72
2021/10/26 00:23:49;;;;;;;24.57;14.25;;;;;;;2.82;80.28;99772.37;1776198;79;21032;-72
2021/10/26 00:26:16;;;;;;;21.00;14.33;;;;;;;2.80;80.31;99775.44;1763435;79;21032;-72
2021/10/26 00:28:42;;;;;;;21.87;13.98;;;;;;;2.78;80.39;99772.02;1786807;78;21262;-72
2021/10/26 00:31:09;;;;;;;22.00;14.53;;;;;;;2.78;80.44;99769.45;1797126;79;20938;-72
2021/10/26 00:33:36;;;;;;;23.38;14.05;;;;;;;2.80;80.50;99763.84;1779440;79;21032;-72
2021/10/26 00:36:03;;;;;;;23.52;14.75;;;;;;;2.80;80.53;99767.70;1790338;79;21040;-72
2021/10/26 00:38:30;;;;;;;27.15;15.00;;;;;;;2.81;80.61;99771.97;1779772;79;20998;-72
2021/10/26 00:40:59;;;;;;;24.65;14.53;;;;;;;2.82;80.68;99763.35;1777547;79;21110;-72
2021/10/26 00:43:25;;;;;;;25.05;14.50;;;;;;;2.82;80.70;99755.62;1782039;79;21001;-73
2021/10/26 00:45:52;;;;;;;19.77;13.90;;;;;;;2.82;80.70;99750.45;1770509;79;20975;-73
2021/10/26 00:48:18;;;;;;;34.13;14.53;;;;;;;2.83;80.73;99752.19;1783062;79;20954;-72
2021/10/26 00:50:45;;;;;;;22.10;14.58;;;;;;;2.83;80.74;99758.63;1787669;79;20993;-73
2021/10/26 00:53:17;;;;;;;24.87;14.70;;;;;;;2.84;80.75;99761.61;1772373;79;21070;-73
2021/10/26 00:55:48;;;;;;;23.30;14.78;;;;;;;2.85;80.80;99765.88;1773156;79;21330;-73
2021/10/26 00:58:15;;;;;;;24.05;14.95;;;;;;;2.87;80.87;99761.56;1788631;78;20969;-72
2021/10/26 01:00:42;;;;;;;21.90;14.45;;;;;;;2.91;80.92;99761.95;1806048;78;21052;-72
2021/10/26 01:03:08;;;;;;;22.15;14.35;;;;;;;2.93;80.97;99763.20;1780701;79;21080;-72
2021/10/26 01:05:35;;;;;;;23.38;14.90;;;;;;;2.98;81.04;99763.13;1763978;80;21491;-72
2021/10/26 01:08:03;;;;;;;20.80;14.10;;;;;;;3.06;81.17;99762.58;1769161;79;20930;-72
2021/10/26 01:10:30;;;;;;;;;;;;;;;3.16;81.24;99764.55;1779557;80;21002;-72
2021/10/26 01:12:57;;;;;;;20.12;14.38;;;;;;;3.25;81.33;99762.69;1738777;81;20159;-72
2021/10/26 01:15:23;;;;;;;;;;;;;;;3.34;81.37;99762.53;1777505;80;20996;-73
2021/10/26 01:17:50;;;;;;;21.30;13.65;;;;;;;3.44;81.42;99763.65;1734387;81;21443;-72
2021/10/26 01:20:17;;;;;;;18.10;13.83;;;;;;;3.48;81.33;99757.57;1772141;79;21571;-72
2021/10/26 01:22:43;;;;;;;23.25;14.23;;;;;;;3.54;81.36;99753.58;1771399;80;21571;-72
2021/10/26 01:25:13;;;;;;;19.98;13.80;;;;;;;3.57;81.33;99751.79;1746800;81;20982;-72
2021/10/26 01:27:44;;;;;;;24.60;13.22;;;;;;;3.63;81.31;99739.20;1772505;79;21634;-73
2021/10/26 01:30:14;;;;;;;22.35;13.83;;;;;;;3.65;81.31;99742.62;1763624;80;21119;-72
2021/10/26 01:32:41;;;;;;;20.77;13.75;;;;;;;3.70;81.43;99739.52;1744781;81;21123;-73
2021/10/26 01:35:08;;;;;;;17.62;13.25;;;;;;;3.73;81.38;99736.88;1748059;81;20988;-72
2021/10/26 01:37:35;;;;;;;23.38;13.18;;;;;;;3.76;81.39;99736.81;1757981;81;28164;-72
2021/10/26 01:40:04;;;;;;;24.07;13.55;;;;;;;3.76;81.39;99736.81;1770433;80;20899;-73
2021/10/26 01:42:30;;;;;;;19.67;13.45;;;;;;;3.80;81.43;99733.27;1739219;81;21179;-72
2021/10/26 01:44:57;;;;;;;24.45;13.48;;;;;;;3.83;81.47;99739.27;1746954;81;21048;-72
2021/10/26 01:48:41;;;;;;;19.47;13.10;;;;;;;3.96;81.61;99731.25;1834310;76;27818;-72
2021/10/26 01:51:08;;;;;;;23.47;13.38;;;;;;;4.01;81.40;99724.70;1824893;78;20985;-72
2021/10/26 01:53:34;;;;;;;19.10;13.13;;;;;;;4.05;81.42;99719.87;1820726;78;21445;-72
2021/10/26 01:56:01;;;;;;;28.42;13.00;;;;;;;4.06;81.38;99721.56;1823567;77;20910;-72
2021/10/26 01:58:28;;;;;;;23.30;13.78;;;;;;;4.02;81.40;99721.23;1828413;77;21142;-72
2021/10/26 02:00:54;;;;;;;25.68;13.55;;;;;;;3.97;81.34;99716.59;1833986;77;21050;-72
2021/10/26 02:03:21;;;;;;;21.02;13.22;;;;;;;3.94;81.47;99718.80;1819361;78;21595;-72
2021/10/26 02:05:48;;;;;;;21.97;13.00;;;;;;;3.90;81.52;99720.20;1788050;78;21100;-72
2021/10/26 02:08:14;;;;;;;26.35;13.58;;;;;;;3.84;81.48;99717.71;1784946;79;20968;-72
2021/10/26 02:10:41;;;;;;;20.85;12.93;;;;;;;3.80;81.61;99717.77;1759676;79;20965;-72
2021/10/26 02:13:07;;;;;;;24.25;13.30;;;;;;;3.76;81.57;99717.44;1770556;81;20985;-73
2021/10/26 02:15:34;;;;;;;20.72;13.30;;;;;;;3.69;81.56;99709.39;1762858;79;21025;-73
2021/10/26 02:18:01;;;;;;;19.62;13.10;;;;;;;3.63;81.61;99713.38;1791913;78;21133;-73
2021/10/26 02:20:28;;;;;;;21.68;14.05;;;;;;;3.59;81.69;99710.47;1792439;79;21076;-73
2021/10/26 02:22:55;;;;;;;20.10;13.10;;;;;;;3.55;81.72;99699.32;1779764;79;26626;-73
2021/10/26 02:25:22;;;;;;;19.90;13.90;;;;;;;3.54;81.78;99705.82;1774039;79;21658;-73
2021/10/26 02:27:49;;;;;;;24.30;14.60;;;;;;;3.52;81.84;99695.51;1768306;79;20968;-73
2021/10/26 02:30:17;;;;;;;20.23;13.70;;;;;;;3.56;82.03;99693.74;1767122;79;21107;-73
2021/10/26 02:32:44;;;;;;;20.77;13.72;;;;;;;3.59;82.12;99688.52;1788193;78;20966;-72
2021/10/26 02:35:12;;;;;;;19.00;12.45;;;;;;;3.61;82.05;99691.05;1770285;81;20930;-72
2021/10/26 02:37:39;;;;;;;22.15;13.50;;;;;;;3.62;81.99;99686.32;1781577;79;21016;-73
2021/10/26 02:40:07;;;;;;;19.37;12.63;;;;;;;3.58;81.89;99688.09;1787156;78;20902;-73
2021/10/26 02:42:34;;;;;;;23.35;13.22;;;;;;;3.53;81.85;99688.64;1789355;79;21085;-73
2021/10/26 02:45:01;;;;;;;19.07;12.98;;;;;;;3.49;81.93;99689.56;1793095;79;20922;-73
2021/10/26 02:47:28;;;;;;;24.02;14.13;;;;;;;3.47;82.00;99688.28;1797988;79;20933;-73
2021/10/26 02:49:54;;;;;;;20.12;12.82;;;;;;;3.47;82.09;99691.31;1780682;79;21045;-73
2021/10/26 02:52:21;;;;;;;26.37;14.30;;;;;;;3.46;82.18;99684.02;1789651;79;21581;-73
2021/10/26 02:54:48;;;;;;;20.62;13.22;;;;;;;3.47;82.18;99683.13;1783232;79;21921;-73
2021/10/26 02:57:15;;;;;;;19.27;12.85;;;;;;;3.49;82.31;99679.23;1785003;78;21523;-73
2021/10/26 02:59:42;;;;;;;;;;;;;;;3.50;82.31;99686.09;1786680;79;21350;-73
2021/10/26 03:02:08;;;;;;;18.15;11.90;;;;;;;3.52;82.39;99689.50;1793911;79;20421;-73
2021/10/26 03:04:35;;;;;;;23.83;13.95;;;;;;;3.53;82.44;99682.19;1787158;79;21024;-73
2021/10/26 03:07:03;;;;;;;20.65;13.40;;;;;;;3.53;82.45;99693.36;1790720;79;21753;-73
2021/10/26 03:09:29;;;;;;;22.65;12.73;;;;;;;3.56;82.51;99695.03;1787712;79;21484;-73
2021/10/26 03:11:56;;;;;;;22.13;13.43;;;;;;;3.57;82.60;99685.95;1770798;79;21598;-73
2021/10/26 03:14:23;;;;;;;22.25;13.28;;;;;;;3.61;82.69;99693.19;1787727;79;20982;-74
2021/10/26 03:16:50;;;;;;;17.80;12.15;;;;;;;3.65;82.77;99696.59;1793691;79;20985;-73
2021/10/26 03:19:16;;;;;;;17.85;12.60;;;;;;;3.70;82.85;99690.45;1789058;78;21154;-73
2021/10/26 03:21:44;;;;;;;19.52;12.93;;;;;;;3.75;82.88;99695.09;1773889;79;21056;-72
2021/10/26 03:24:10;;;;;;;20.95;13.22;;;;;;;3.79;82.92;99691.55;1759135;81;20987;-72
2021/10/26 03:26:37;;;;;;;17.12;12.37;;;;;;;3.84;82.91;99682.43;1758419;80;20995;-72
2021/10/26 03:29:04;;;;;;;18.20;12.37;;;;;;;3.87;82.91;99678.48;1768256;80;21029;-72
2021/10/26 03:31:30;;;;;;;17.82;11.90;;;;;;;3.90;82.90;99693.08;1769410;79;21192;-72
2021/10/26 03:33:57;;;;;;;23.77;12.55;;;;;;;3.90;82.91;99689.20;1786035;80;20997;-72
2021/10/26 03:36:24;;;;;;;18.70;12.95;;;;;;;3.93;83.02;99691.72;1764684;81;20938;-72
2021/10/26 03:38:51;;;;;;;18.25;12.13;;;;;;;3.98;83.08;99697.64;1789986;78;20902;-72
2021/10/26 03:41:18;;;;;;;19.95;12.47;;;;;;;3.94;82.97;99695.55;1786116;79;21054;-72
2021/10/26 03:43:44;;;;;;;17.77;12.15;;;;;;;3.91;82.90;99696.05;1752008;81;21098;-72
2021/10/26 03:46:13;;;;;;;18.35;12.63;;;;;;;3.92;83.03;99690.00;1799000;79;20934;-72
2021/10/26 03:48:39;;;;;;;18.95;12.03;;;;;;;3.93;83.13;99680.09;1768334;80;20935;-73
2021/10/26 03:51:06;;;;;;;18.32;12.70;;;;;;;3.97;83.20;99683.00;1764374;80;20950;-73
2021/10/26 03:53:33;;;;;;;19.17;13.38;;;;;;;4.00;83.30;99685.52;1763740;80;20970;-73
2021/10/26 03:56:02;;;;;;;18.50;12.55;;;;;;;4.04;83.28;99680.72;1770864;80;21066;-73
2021/10/26 03:58:29;;;;;;;20.05;14.10;;;;;;;4.05;83.24;99678.53;1756999;80;21015;-73
2021/10/26 04:00:55;;;;;;;17.77;12.63;;;;;;;4.05;83.27;99687.58;1768946;80;20939;-73
2021/10/26 04:03:22;;;;;;;17.80;11.60;;;;;;;4.08;83.37;99691.38;1758103;80;21722;-73
2021/10/26 04:05:58;;;;;;;20.30;12.83;;;;;;;4.09;83.42;99687.94;1764076;80;21011;-72
2021/10/26 04:08:23;;;;;;;19.60;12.90;;;;;;;4.12;83.49;99687.86;1751988;80;21153;-72
2021/10/26 04:10:54;;;;;;;20.23;13.03;;;;;;;4.16;83.51;99679.15;1755857;80;20939;-71
2021/10/26 04:13:24;;;;;;;19.50;12.30;;;;;;;4.21;83.60;99672.15;1761123;80;21001;-73
2021/10/26 04:15:54;;;;;;;19.73;13.22;;;;;;;4.28;83.61;99679.77;1740720;80;21517;-70
2021/10/26 04:18:23;;;;;;;15.78;12.43;;;;;;;4.33;83.63;99676.64;1766838;80;20951;-71
2021/10/26 04:20:51;;;;;;;19.27;12.78;;;;;;;4.38;83.60;99674.80;1770091;80;21140;-72
2021/10/26 04:23:50;;;;;;;18.67;12.18;;;;;;;4.40;83.57;99672.59;1769892;80;21032;-74
2021/10/26 04:26:23;;;;;;;16.73;12.25;;;;;;;4.42;83.53;99664.79;1760068;79;22582;-74
2021/10/26 04:28:49;;;;;;;18.42;12.60;;;;;;;4.45;83.57;99667.30;1767602;80;21489;-74
2021/10/26 04:31:16;;;;;;;20.62;12.25;;;;;;;4.47;83.56;99670.70;1776512;79;21573;-74
2021/10/26 04:33:43;;;;;;;18.05;11.60;;;;;;;4.48;83.54;99674.98;1770865;80;21901;-74
2021/10/26 04:36:09;;;;;;;16.52;12.20;;;;;;;4.49;83.56;99668.95;1767605;80;20965;-74
2021/10/26 04:38:36;;;;;;;19.35;12.45;;;;;;;4.49;83.48;99666.36;1756684;80;21022;-74
2021/10/26 04:41:07;;;;;;;19.77;12.20;;;;;;;4.46;83.42;99681.95;1771381;80;21453;-74
2021/10/26 04:43:32;;;;;;;18.82;12.85;;;;;;;4.43;83.42;99669.09;1766171;80;20967;-74
2021/10/26 04:45:58;;;;;;;18.80;12.80;;;;;;;4.38;83.43;99665.76;1769868;80;21049;-75
2021/10/26 04:48:25;;;;;;;19.27;12.80;;;;;;;4.35;83.53;99677.46;1765551;79;21014;-74
2021/10/26 04:50:51;;;;;;;14.58;11.53;;;;;;;4.32;83.60;99674.95;1759161;81;21002;-74
2021/10/26 04:53:19;;;;;;;18.00;12.78;;;;;;;4.29;83.57;99671.14;1759064;81;20957;-73
2021/10/26 04:55:46;;;;;;;18.95;12.13;;;;;;;4.28;83.64;99669.42;1750476;81;20998;-74
2021/10/26 04:58:13;;;;;;;16.17;12.00;;;;;;;4.25;83.67;99680.67;1737496;81;22124;-73
2021/10/26 05:00:40;;;;;;;19.50;13.00;;;;;;;4.21;83.63;99672.15;1764001;81;20911;-75
2021/10/26 05:03:06;;;;;;;17.23;12.53;;;;;;;4.19;83.65;99676.50;1754762;81;21480;-73
2021/10/26 05:05:33;;;;;;;17.62;12.40;;;;;;;4.16;83.66;99681.73;1761998;81;21560;-73
2021/10/26 05:08:01;;;;;;;21.07;13.20;;;;;;;4.13;83.68;99676.64;1752448;81;21501;-74
2021/10/26 05:10:56;;;;;;;20.85;13.13;;;;;;;4.17;83.82;99678.70;1884901;75;22820;-73
2021/10/26 05:13:24;;;;;;;21.23;12.23;;;;;;;4.10;83.82;99687.04;1845216;77;20980;-74
2021/10/26 05:15:51;;;;;;;20.70;13.08;;;;;;;4.09;83.81;99685.35;1854679;75;21862;-74
2021/10/26 05:18:18;;;;;;;19.52;12.33;;;;;;;4.07;83.86;99681.94;1814885;77;20989;-74
2021/10/26 05:20:47;;;;;;;14.95;11.20;;;;;;;4.07;83.87;99675.48;1789264;78;21452;-74
2021/10/26 05:23:13;;;;;;;18.82;12.75;;;;;;;4.05;83.89;99686.28;1788845;78;21085;-74
2021/10/26 05:25:40;;;;;;;17.00;12.98;;;;;;;4.03;83.92;99683.75;1782015;78;21022;-74
2021/10/26 05:28:28;;;;;;;21.43;13.17;;;;;;;4.03;84.03;99685.45;1790772;78;22244;-74
2021/10/26 05:30:55;;;;;;;18.35;13.13;;;;;;;4.05;84.00;99683.70;1733508;81;21608;-74
2021/10/26 05:33:22;;;;;;;24.07;13.03;;;;;;;4.05;84.02;99683.70;1733326;81;21035;-74
2021/10/26 05:35:48;;;;;;;19.57;12.30;;;;;;;4.05;84.02;99678.53;1703244;82;21081;-74
2021/10/26 05:40:01;;;;;;;18.85;11.88;;;;;;;4.08;84.06;99681.05;1837622;77;23425;-73
2021/10/26 05:42:28;;;;;;;25.80;13.32;;;;;;;4.03;84.09;99682.45;1816439;78;20989;-73
2021/10/26 05:44:55;;;;;;;18.12;12.47;;;;;;;4.05;84.15;99690.16;1765973;80;21119;-73
2021/10/26 05:47:21;;;;;;;19.42;12.85;;;;;;;4.04;84.13;99692.34;1766802;79;20918;-72
2021/10/26 05:49:48;;;;;;;24.15;13.65;;;;;;;4.03;84.15;99690.63;1764752;80;20984;-73
2021/10/26 05:52:20;;;;;;;19.20;14.15;;;;;;;4.05;84.20;99699.20;1787464;78;20987;-73
2021/10/26 05:54:46;;;;;;;19.87;12.75;;;;;;;4.08;84.25;99699.13;1767931;80;20946;-72
2021/10/26 05:57:13;;;;;;;20.12;14.25;;;;;;;4.09;84.22;99708.61;1799734;78;21116;-72
2021/10/26 05:59:40;;;;;;;17.45;12.13;;;;;;;4.10;84.22;99707.71;1815645;77;20892;-73
2021/10/26 06:02:07;;;;;;;19.55;12.88;;;;;;;4.11;84.23;99711.98;1813844;78;20985;-73
2021/10/26 06:04:34;;;;;;;20.25;13.38;;;;;;;4.10;84.16;99714.62;1819008;78;20994;-74
2021/10/26 06:07:01;;;;;;;21.82;13.60;;;;;;;4.11;84.26;99711.14;1819900;78;21607;-75
2021/10/26 06:09:30;;;;;;;19.85;12.47;;;;;;;4.12;84.26;99708.54;1812583;78;22327;-75
2021/10/26 06:12:00;;;;;;;20.72;12.43;;;;;;;4.14;84.28;99709.33;1757720;79;21607;-75
2021/10/26 06:14:27;;;;;;;19.65;13.13;;;;;;;4.17;84.30;99709.30;1817867;78;20939;-75
2021/10/26 06:16:54;;;;;;;22.37;13.43;;;;;;;4.20;84.37;99704.06;1818303;78;20997;-75
2021/10/26 06:19:21;;;;;;;26.07;12.68;;;;;;;4.24;84.41;99695.34;1816946;78;21512;-75
2021/10/26 06:21:48;;;;;;;18.80;12.88;;;;;;;4.31;84.46;99700.38;1817225;78;21977;-74
2021/10/26 06:24:15;;;;;;;16.65;11.83;;;;;;;4.35;84.37;99695.55;1809721;77;21547;-75
2021/10/26 06:26:41;;;;;;;15.35;12.35;;;;;;;4.35;84.32;99694.27;1815704;78;21497;-74
2021/10/26 06:29:08;;;;;;;23.22;12.43;;;;;;;4.35;84.33;99702.02;1809001;78;21497;-74
2021/10/26 06:31:35;;;;;;;21.07;13.40;;;;;;;4.36;84.42;99696.80;1764112;79;21020;-75
2021/10/26 06:34:04;;;;;;;22.20;12.47;;;;;;;4.41;84.51;99691.53;1772379;79;21543;-63
2021/10/26 06:36:31;;;;;;;19.90;12.75;;;;;;;4.46;84.58;99693.13;1792764;78;21001;-67
2021/10/26 06:38:57;;;;;;;18.75;11.48;;;;;;;4.52;84.58;99697.31;1761410;79;21108;-67
2021/10/26 06:41:54;;;;;;;21.10;12.93;;;;;;;4.59;84.67;99700.59;1813217;78;21130;-67
2021/10/26 06:56:08;;;;;;;24.72;12.85;;;;;;;5.34;85.07;99712.98;1790674;77;22369;-66
2021/10/26 06:58:33;;;;;;;21.48;13.78;;;;;;;5.44;85.04;99710.58;1758122;79;21644;-66
2021/10/26 07:01:02;;;;;;;22.90;14.40;;;;;;;5.57;84.94;99714.55;1803483;78;22912;-66
2021/10/26 07:03:29;;;;;;;19.57;12.55;;;;;;;5.71;84.92;99721.06;1786035;78;21086;-66
2021/10/26 07:05:55;;;;;;;16.17;10.80;;;;;;;5.82;84.84;99711.25;1795518;78;21579;-66
2021/10/26 07:08:22;;;;;;;19.00;11.83;;;;;;;5.95;84.96;99710.06;1789864;78;21046;-67
2021/10/26 07:10:50;;;;;;;20.15;11.33;;;;;;;6.10;84.98;99710.50;1797858;78;21136;-66
2021/10/26 07:13:39;;;;;;;21.73;10.53;;;;;;;6.24;84.97;99710.95;1796298;78;21647;-67
2021/10/26 07:16:07;;;;;;;12.30;9.15;;;;;;;6.37;84.95;99717.47;1745687;80;21005;-66
2021/10/26 07:18:35;;;;;;;12.15;7.80;;;;;;;6.48;84.86;99716.70;1690397;82;21487;-67
2021/10/26 07:21:01;;;;;;;14.58;10.05;;;;;;;6.58;84.80;99709.92;1741206;81;21787;-66
2021/10/26 07:23:28;;;;;;;20.37;9.90;;;;;;;6.66;84.68;99707.94;1744117;81;21079;-66
2021/10/26 07:25:55;;;;;;;14.18;7.95;;;;;;;6.73;84.59;99720.67;1746863;81;22413;-68
2021/10/26 07:28:22;;;;;;;10.80;7.83;;;;;;;6.81;84.60;99715.25;1693421;83;20938;-66
2021/10/26 07:30:49;;;;;;;12.85;8.83;;;;;;;6.88;84.57;99716.73;1740955;81;21013;-67
2021/10/26 07:33:25;;;;;;;10.00;7.15;;;;;;;6.91;84.42;99711.45;1742880;82;21448;-67
2021/10/26 07:35:52;;;;;;;11.25;7.72;;;;;;;6.93;84.44;99709.66;1738493;80;21001;-66
2021/10/26 07:38:31;;;;;;;12.15;7.05;;;;;;;6.98;84.51;99708.67;1712909;81;21077;-67
2021/10/26 07:41:03;;;;;;;14.03;8.40;;;;;;;7.01;84.44;99705.97;1738809;81;20993;-66
2021/10/26 07:43:30;;;;;;;11.75;8.23;;;;;;;7.00;84.35;99709.03;1685496;83;21350;-66
2021/10/26 07:45:59;;;;;;;13.93;8.95;;;;;;;7.05;84.48;99710.15;1739290;80;20972;-66
2021/10/26 07:48:26;;;;;;;11.10;8.38;;;;;;;7.05;84.37;99707.55;1722443;81;20942;-66
2021/10/26 07:50:59;;;;;;;15.32;9.20;;;;;;;7.05;84.34;99699.77;1740151;81;21413;-66
2021/10/26 07:53:21;;;;;;;13.53;8.38;;;;;;;7.04;84.39;99699.38;1726333;82;21518;-65
2021/10/26 07:55:48;;;;;;;11.83;7.97;;;;;;;7.04;84.33;99701.52;1711331;82;21115;-66
2021/10/26 07:58:15;;;;;;;18.37;10.30;;;;;;;7.17;84.80;99695.03;1727016;82;21576;-66
2021/10/26 08:00:42;;;;;;;11.10;8.58;;;;;;;7.38;84.81;99696.03;1705189;82;21032;-66
2021/10/26 08:03:09;;;;;;;14.03;9.27;;;;;;;7.52;84.74;99692.11;1736370;81;21347;-67
2021/10/26 08:05:39;;;;;;;14.13;9.23;;;;;;;7.74;84.91;99693.50;1742795;81;21004;-67
2021/10/26 08:08:05;;;;;;;19.98;9.70;;;;;;;7.90;84.75;99680.77;1751659;80;21497;-67
2021/10/26 08:10:32;;;;;;;15.00;9.98;;;;;;;8.02;84.54;99679.03;1750263;81;21131;-66
2021/10/26 08:12:59;;;;;;;15.95;9.75;;;;;;;8.09;84.52;99680.48;1738908;81;21631;-67
2021/10/26 08:15:26;;;;;;;14.63;9.83;;;;;;;8.16;84.19;99689.76;1761824;80;21060;-67
2021/10/26 08:17:53;;;;;;;16.12;9.53;;;;;;;8.35;84.13;99678.66;1768709;80;21190;-67
2021/10/26 08:20:19;;;;;;;15.90;9.83;;;;;;;8.35;84.13;99678.66;1764788;80;21018;-66
2021/10/26 08:22:46;;;;;;;15.88;9.93;;;;;;;8.26;83.59;99682.02;1765953;80;20978;-67
2021/10/26 08:25:37;;;;;;;13.30;9.60;;;;;;;8.20;83.66;99673.12;1713745;80;21069;-67
2021/10/26 08:28:07;;;;;;;18.17;9.30;;;;;;;8.29;84.03;99683.19;1735728;81;21745;-67
2021/10/26 08:30:45;;;;;;;27.95;10.70;;;;;;;8.47;84.10;99688.61;1735246;81;20946;-68
2021/10/26 08:33:24;;;;;;;19.10;9.50;;;;;;;8.62;83.82;99685.39;1729279;81;21018;-67
2021/10/26 08:35:47;;;;;;;12.63;8.70;;;;;;;8.74;83.69;99679.71;1707182;82;20993;-72
2021/10/26 08:38:14;;;;;;;;;;;;;;;8.86;83.82;99677.52;1740452;81;20945;-71
2021/10/26 08:40:47;;;;;;;19.77;9.33;;;;;;;8.99;83.65;99670.03;1726822;81;21021;-71
2021/10/26 08:43:22;;;;;;;28.80;9.00;;;;;;;9.04;83.52;99667.63;1703693;82;21001;-72
2021/10/26 08:45:53;;;;;;;14.20;9.45;;;;;;;9.07;83.28;99667.50;1730569;82;20922;-71
2021/10/26 08:48:24;;;;;;;14.23;8.08;;;;;;;9.10;83.33;99666.09;1742826;81;21012;-71
2021/10/26 08:51:01;;;;;;;15.23;8.93;;;;;;;9.23;83.69;99665.56;1734846;81;20999;-71
2021/10/26 08:53:30;;;;;;;24.43;9.75;;;;;;;9.40;83.49;99660.47;1729171;81;22268;-72
2021/10/26 08:56:02;;;;;;;14.60;7.67;;;;;;;9.73;84.01;99662.52;1730295;82;20934;-71
2021/10/26 08:58:28;;;;;;;13.98;6.87;;;;;;;10.11;83.94;99659.91;1707794;82;20981;-71
2021/10/26 09:01:03;;;;;;;16.80;6.47;;;;;;;10.43;83.69;99655.83;1735396;81;21011;-71
2021/10/26 09:03:35;;;;;;;20.40;7.45;;;;;;;10.72;83.82;99657.03;1724606;81;20906;-71
2021/10/26 09:06:05;;;;;;;13.18;7.00;;;;;;;10.92;83.11;99662.14;1703057;81;21097;-72
2021/10/26 09:08:31;;;;;;;10.30;6.90;;;;;;;10.93;82.76;99663.81;1703252;83;20993;-71
2021/10/26 09:11:18;;;;;;;18.30;7.10;;;;;;;11.04;82.53;99667.67;1702969;83;21035;-71
2021/10/26 09:16:47;;;;;;;19.52;8.18;;;;;;;11.19;82.36;99672.11;1731365;82;21073;-70
2021/10/26 09:19:25;;;;;;;23.15;7.08;;;;;;;11.31;82.24;99668.86;1698469;83;21576;-71
2021/10/26 09:22:06;;;;;;;29.32;7.15;;;;;;;11.38;81.88;99663.72;1703982;82;20998;-71
2021/10/26 09:24:34;;;;;;;15.38;7.03;;;;;;;11.52;82.08;99660.86;1701484;82;21053;-70
2021/10/26 09:27:06;;;;;;;26.37;8.88;;;;;;;11.76;81.73;99664.81;1735405;80;20979;-70
2021/10/26 09:29:47;;;;;;;28.02;10.43;;;;;;;11.90;81.94;99666.70;1698963;83;21037;-71
2021/10/26 09:32:18;;;;;;;42.45;9.63;;;;;;;11.80;81.52;99637.55;1704552;83;21053;-68
2021/10/26 09:34:57;;;;;;;30.00;9.83;;;;;;;11.93;81.21;99650.86;1701104;83;21111;-68
2021/10/26 09:37:28;;;;;;;21.27;7.62;;;;;;;12.03;81.27;99653.81;1735852;81;21030;-67
2021/10/26 09:39:58;;;;;;;16.75;6.28;;;;;;;12.27;81.19;99665.56;1736059;81;21052;-68
2021/10/26 09:42:29;;;;;;;15.05;6.30;;;;;;;12.33;80.72;99659.14;1706243;83;21701;-67
2021/10/26 09:45:03;;;;;;;33.80;7.28;;;;;;;12.41;80.67;99653.48;1738965;81;21114;-68
2021/10/26 09:47:29;;;;;;;16.77;6.33;;;;;;;12.45;80.35;99652.38;1712310;82;20970;-68
2021/10/26 09:49:59;;;;;;;22.22;7.37;;;;;;;12.49;80.32;99655.18;1712945;82;21044;-68
2021/10/26 09:52:36;;;;;;;11.78;6.37;;;;;;;12.50;80.12;99666.06;1702523;82;21517;-68
2021/10/26 09:55:21;;;;;;;23.77;6.87;;;;;;;12.50;80.28;99659.52;1678060;83;21496;-67
2021/10/26 09:57:57;;;;;;;17.20;6.97;;;;;;;12.63;80.44;99664.45;1704916;82;21415;-68
2021/10/26 10:00:29;;;;;;;13.75;6.67;;;;;;;12.70;79.90;99659.69;1726385;83;21567;-67
2021/10/26 10:03:10;;;;;;;9.23;6.20;;;;;;;12.77;79.87;99667.56;1727501;81;21037;-67
2021/10/26 10:05:54;;;;;;;25.48;6.95;;;;;;;12.81;79.16;99664.32;1728777;81;20959;-66
2021/10/26 10:08:34;;;;;;;10.68;6.53;;;;;;;12.72;79.20;99669.15;1716095;81;21148;-68
2021/10/26 10:11:15;;;;;;;13.00;6.78;;;;;;;12.46;78.51;99659.28;1727076;81;21521;-68
2021/10/26 10:13:45;;;;;;;27.07;7.37;;;;;;;12.22;78.59;99667.58;1726417;81;21002;-67
2021/10/26 10:16:20;;;;;;;17.70;6.37;;;;;;;11.99;78.54;99662.77;1727748;81;20989;-67
2021/10/26 10:18:49;;;;;;;15.95;7.05;;;;;;;11.83;78.64;99660.92;1727413;81;21008;-67
2021/10/26 10:21:28;;;;;;;10.85;7.10;;;;;;;11.66;78.26;99663.59;1728326;81;21060;-67
2021/10/26 10:23:56;;;;;;;12.95;7.03;;;;;;;11.45;78.53;99662.09;1728516;81;21178;-67
2021/10/26 10:26:28;;;;;;;12.23;6.33;;;;;;;11.39;78.62;99665.40;1729839;81;21012;-67
2021/10/26 10:28:57;;;;;;;9.80;6.87;;;;;;;11.36;78.68;99670.78;1739045;81;21585;-66
2021/10/26 10:31:27;;;;;;;9.63;6.95;;;;;;;11.33;78.74;99665.72;1742820;81;21006;-67
2021/10/26 10:34:01;;;;;;;19.98;9.95;;;;;;;11.27;78.61;99659.97;1738320;81;21496;-67
2021/10/26 10:36:28;;;;;;;12.68;7.60;;;;;;;11.27;78.61;99659.97;1739671;81;21080;-68
2021/10/26 10:39:00;;;;;;;17.42;7.95;;;;;;;11.25;78.35;99657.42;1739045;81;21129;-67
2021/10/26 10:41:35;;;;;;;23.15;11.15;;;;;;;11.27;78.51;99663.89;1736623;81;21063;-67
2021/10/26 10:44:28;;;;;;;22.27;8.88;;;;;;;11.26;78.31;99664.36;1743743;81;21053;-67
2021/10/26 10:46:59;;;;;;;15.88;9.33;;;;;;;11.22;78.15;99664.11;1735908;81;21532;-67
2021/10/26 10:49:42;;;;;;;35.50;10.82;;;;;;;11.13;77.99;99658.06;1736857;81;21476;-67
2021/10/26 10:52:18;;;;;;;17.73;9.23;;;;;;;11.05;77.94;99656.29;1738133;81;20989;-66
2021/10/26 10:54:53;;;;;;;18.20;9.37;;;;;;;10.97;77.91;99662.73;1740942;81;21045;-66
2021/10/26 10:57:33;;;;;;;10.58;8.50;;;;;;;10.91;77.88;99657.81;1738221;81;21070;-67
2021/10/26 11:00:05;;;;;;;14.75;9.38;;;;;;;10.83;77.76;99659.95;1737428;81;21461;-66
2021/10/26 11:02:43;;;;;;;12.68;9.03;;;;;;;10.70;77.69;99657.59;1736150;81;21494;-67
2021/10/26 11:05:38;;;;;;;14.18;8.45;;;;;;;10.63;77.93;99657.48;1735972;81;21011;-64
2021/10/26 11:08:12;;;;;;;18.48;9.58;;;;;;;10.51;77.78;99654.55;1714922;82;20932;-67
2021/10/26 11:10:57;;;;;;;15.93;9.93;;;;;;;10.41;77.83;99647.22;1677720;82;21099;-67
2021/10/26 11:13:32;;;;;;;17.90;9.93;;;;;;;10.25;77.81;99653.58;1747547;81;21514;-66
2021/10/26 11:16:09;;;;;;;14.03;10.05;;;;;;;10.07;77.95;99657.45;1687767;82;21148;-66
2021/10/26 11:18:52;;;;;;;12.63;9.78;;;;;;;9.98;78.23;99650.05;1726501;82;20981;-67
2021/10/26 11:24:07;;;;;;;17.10;11.50;;;;;;;9.84;78.31;99649.84;1709369;82;21049;-68
2021/10/26 11:26:45;;;;;;;17.45;12.00;;;;;;;9.82;78.59;99642.53;1745715;81;20941;-65
2021/10/26 11:29:28;;;;;;;15.00;10.93;;;;;;;9.83;78.51;99650.73;1704925;82;21911;-66
2021/10/26 11:31:55;;;;;;;16.10;11.57;;;;;;;9.81;78.62;99642.16;1715160;82;20967;-67
2021/10/26 11:34:27;;;;;;;15.85;11.68;;;;;;;9.81;78.67;99651.28;1717233;82;21611;-67
2021/10/26 11:37:06;;;;;;;15.72;11.45;;;;;;;9.83;78.74;99645.52;1744841;81;20953;-66
2021/10/26 11:39:59;;;;;;;15.20;11.83;;;;;;;9.81;78.73;99648.67;1772938;79;21061;-67
2021/10/26 11:42:27;;;;;;;13.88;10.88;;;;;;;9.76;78.62;99656.70;1774708;79;21088;-66
2021/10/26 11:45:08;;;;;;;17.07;11.55;;;;;;;9.72;78.81;99652.98;1772764;79;21016;-67
2021/10/26 11:47:43;;;;;;;13.72;11.18;;;;;;;9.63;78.78;99646.42;1768946;79;21004;-66
2021/10/26 11:50:09;;;;;;;15.03;11.93;;;;;;;9.53;78.89;99651.20;1767483;79;20892;-66
2021/10/26 11:52:40;;;;;;;16.85;12.88;;;;;;;9.47;78.96;99651.48;1780587;79;20997;-66
2021/10/26 11:55:07;;;;;;;16.27;11.50;;;;;;;9.42;79.07;99646.92;1773589;79;21459;-66
2021/10/26 11:57:33;;;;;;;16.42;12.35;;;;;;;9.34;79.04;99655.53;1766910;79;21008;-66
2021/10/26 12:00:05;;;;;;;15.53;12.65;;;;;;;9.31;79.17;99654.36;1762847;80;21595;-66